sensor_id;sensor_type;location;lat;lon;timestamp;temperature;humidity
25482;DHT22;13395;50.752;4.268;2023-09-08T00:00:56;20.90;99.90
25482;DHT22;13395;50.752;4.268;2023-09-08T00:03:21;20.90;99.90
25482;DHT22;13395;50.752;4.268;2023-09-08T00:05:47;20.80;99.90
25482;DHT22;13395;50.752;4.268;2023-09-08T00:08:13;20.80;99.90
25482;DHT22;13395;50.752;4.268;2023-09-08T00:10:38;20.80;99.90
25482;DHT22;13395;50.752;4.268;2023-09-08T00:13:04;20.80;99.90
25482;DHT22;13395;50.752;4.268;2023-09-08T00:15:29;20.80;99.90
25482;DHT22;13395;50.752;4.268;2023-09-08T00:17:55;20.80;99.90
25482;DHT22;13395;50.752;4.268;2023-09-08T00:20:22;20.70;99.90
25482;DHT22;13395;50.752;4.268;2023-09-08T00:22:47;20.70;99.90
25482;DHT22;13395;50.752;4.268;2023-09-08T00:25:13;20.60;99.90
25482;DHT22;13395;50.752;4.268;2023-09-08T00:27:39;20.60;99.90
25482;DHT22;13395;50.752;4.268;2023-09-08T00:30:06;20.60;99.90
25482;DHT22;13395;50.752;4.268;2023-09-08T00:32:31;20.60;99.90
25482;DHT22;13395;50.752;4.268;2023-09-08T00:34:57;20.60;99.90
25482;DHT22;13395;50.752;4.268;2023-09-08T00:37:23;20.50;99.90
25482;DHT22;13395;50.752;4.268;2023-09-08T00:39:48;20.40;99.90
25482;DHT22;13395;50.752;4.268;2023-09-08T00:42:14;20.40;99.90
25482;DHT22;13395;50.752;4.268;2023-09-08T00:44:39;20.40;99.90
25482;DHT22;13395;50.752;4.268;2023-09-08T00:47:05;20.30;99.90
25482;DHT22;13395;50.752;4.268;2023-09-08T00:49:31;20.30;99.90
25482;DHT22;13395;50.752;4.268;2023-09-08T00:51:56;20.30;99.90
25482;DHT22;13395;50.752;4.268;2023-09-08T00:54:22;20.30;99.90
25482;DHT22;13395;50.752;4.268;2023-09-08T00:56:48;20.30;99.90
25482;DHT22;13395;50.752;4.268;2023-09-08T00:59:15;20.30;99.90
25482;DHT22;13395;50.752;4.268;2023-09-08T01:01:42;20.30;99.90
25482;DHT22;13395;50.752;4.268;2023-09-08T01:04:07;20.20;99.90
25482;DHT22;13395;50.752;4.268;2023-09-08T01:06:33;20.20;99.90
25482;DHT22;13395;50.752;4.268;2023-09-08T01:08:59;20.20;99.90
25482;DHT22;13395;50.752;4.268;2023-09-08T01:11:25;20.20;99.90
25482;DHT22;13395;50.752;4.268;2023-09-08T01:13:51;20.20;99.90
25482;DHT22;13395;50.752;4.268;2023-09-08T01:16:17;20.20;99.90
25482;DHT22;13395;50.752;4.268;2023-09-08T01:18:44;20.10;99.90
25482;DHT22;13395;50.752;4.268;2023-09-08T01:21:26;20.10;99.90
25482;DHT22;13395;50.752;4.268;2023-09-08T01:26:45;20.00;99.90
25482;DHT22;13395;50.752;4.268;2023-09-08T01:29:13;19.90;99.90
25482;DHT22;13395;50.752;4.268;2023-09-08T01:31:39;19.80;99.90
25482;DHT22;13395;50.752;4.268;2023-09-08T01:34:05;19.80;99.90
25482;DHT22;13395;50.752;4.268;2023-09-08T01:36:34;19.70;99.90
25482;DHT22;13395;50.752;4.268;2023-09-08T01:39:00;19.70;99.90
25482;DHT22;13395;50.752;4.268;2023-09-08T01:41:26;19.60;99.90
25482;DHT22;13395;50.752;4.268;2023-09-08T01:43:52;19.70;99.90
25482;DHT22;13395;50.752;4.268;2023-09-08T01:46:17;19.70;99.90
25482;DHT22;13395;50.752;4.268;2023-09-08T01:48:43;19.60;99.90
25482;DHT22;13395;50.752;4.268;2023-09-08T01:51:08;19.50;99.90
25482;DHT22;13395;50.752;4.268;2023-09-08T01:53:34;19.50;99.90
25482;DHT22;13395;50.752;4.268;2023-09-08T01:56:00;19.60;99.90
25482;DHT22;13395;50.752;4.268;2023-09-08T01:58:25;19.60;99.90
25482;DHT22;13395;50.752;4.268;2023-09-08T02:00:51;19.50;99.90
25482;DHT22;13395;50.752;4.268;2023-09-08T02:03:17;19.50;99.90
25482;DHT22;13395;50.752;4.268;2023-09-08T02:05:43;19.50;99.90
25482;DHT22;13395;50.752;4.268;2023-09-08T02:08:09;19.50;99.90
25482;DHT22;13395;50.752;4.268;2023-09-08T02:10:35;19.50;99.90
25482;DHT22;13395;50.752;4.268;2023-09-08T02:13:01;19.60;99.90
25482;DHT22;13395;50.752;4.268;2023-09-08T02:15:26;19.60;99.90
25482;DHT22;13395;50.752;4.268;2023-09-08T02:17:56;19.50;99.90
25482;DHT22;13395;50.752;4.268;2023-09-08T02:20:22;19.40;99.90
25482;DHT22;13395;50.752;4.268;2023-09-08T02:22:52;19.40;99.90
25482;DHT22;13395;50.752;4.268;2023-09-08T02:25:18;19.30;99.90
25482;DHT22;13395;50.752;4.268;2023-09-08T02:27:44;19.30;99.90
25482;DHT22;13395;50.752;4.268;2023-09-08T02:30:10;19.30;99.90
25482;DHT22;13395;50.752;4.268;2023-09-08T02:32:36;19.30;99.90
25482;DHT22;13395;50.752;4.268;2023-09-08T02:35:01;19.30;99.90
25482;DHT22;13395;50.752;4.268;2023-09-08T02:37:27;19.20;99.90
25482;DHT22;13395;50.752;4.268;2023-09-08T02:39:52;19.20;99.90
25482;DHT22;13395;50.752;4.268;2023-09-08T02:42:18;19.20;99.90
25482;DHT22;13395;50.752;4.268;2023-09-08T02:44:44;19.20;99.90
25482;DHT22;13395;50.752;4.268;2023-09-08T02:47:10;19.20;99.90
25482;DHT22;13395;50.752;4.268;2023-09-08T02:49:35;19.20;99.90
25482;DHT22;13395;50.752;4.268;2023-09-08T02:52:01;19.10;99.90
25482;DHT22;13395;50.752;4.268;2023-09-08T02:54:26;19.10;99.90
25482;DHT22;13395;50.752;4.268;2023-09-08T02:56:52;19.10;99.90
25482;DHT22;13395;50.752;4.268;2023-09-08T02:59:18;19.10;99.90
25482;DHT22;13395;50.752;4.268;2023-09-08T03:01:43;19.00;99.90
25482;DHT22;13395;50.752;4.268;2023-09-08T03:04:09;19.00;99.90
25482;DHT22;13395;50.752;4.268;2023-09-08T03:06:35;19.00;99.90
25482;DHT22;13395;50.752;4.268;2023-09-08T03:09:00;19.00;99.90
25482;DHT22;13395;50.752;4.268;2023-09-08T03:11:26;19.00;99.90
25482;DHT22;13395;50.752;4.268;2023-09-08T03:13:51;19.00;99.90
25482;DHT22;13395;50.752;4.268;2023-09-08T03:16:17;19.00;99.90
25482;DHT22;13395;50.752;4.268;2023-09-08T03:18:42;19.00;99.90
25482;DHT22;13395;50.752;4.268;2023-09-08T03:21:08;19.00;99.90
25482;DHT22;13395;50.752;4.268;2023-09-08T03:26:03;19.00;99.90
25482;DHT22;13395;50.752;4.268;2023-09-08T03:28:28;19.00;99.90
25482;DHT22;13395;50.752;4.268;2023-09-08T03:30:54;18.90;99.90
25482;DHT22;13395;50.752;4.268;2023-09-08T03:33:19;18.90;99.90
25482;DHT22;13395;50.752;4.268;2023-09-08T03:35:45;18.90;99.90
25482;DHT22;13395;50.752;4.268;2023-09-08T03:38:11;19.00;99.90
25482;DHT22;13395;50.752;4.268;2023-09-08T03:40:36;18.90;99.90
25482;DHT22;13395;50.752;4.268;2023-09-08T03:43:03;18.90;99.90
25482;DHT22;13395;50.752;4.268;2023-09-08T03:45:29;18.90;99.90
25482;DHT22;13395;50.752;4.268;2023-09-08T03:47:54;18.80;99.90
25482;DHT22;13395;50.752;4.268;2023-09-08T03:50:20;18.80;99.90
25482;DHT22;13395;50.752;4.268;2023-09-08T03:52:45;18.70;99.90
25482;DHT22;13395;50.752;4.268;2023-09-08T03:55:11;18.70;99.90
25482;DHT22;13395;50.752;4.268;2023-09-08T03:57:37;18.70;99.90
25482;DHT22;13395;50.752;4.268;2023-09-08T04:00:03;18.70;99.90
25482;DHT22;13395;50.752;4.268;2023-09-08T04:02:30;18.70;99.90
25482;DHT22;13395;50.752;4.268;2023-09-08T04:04:56;18.70;99.90
25482;DHT22;13395;50.752;4.268;2023-09-08T04:07:21;18.70;99.90
25482;DHT22;13395;50.752;4.268;2023-09-08T04:09:47;18.60;99.90
25482;DHT22;13395;50.752;4.268;2023-09-08T04:12:12;18.60;99.90
25482;DHT22;13395;50.752;4.268;2023-09-08T04:14:38;18.60;99.90
25482;DHT22;13395;50.752;4.268;2023-09-08T04:17:04;18.60;99.90
25482;DHT22;13395;50.752;4.268;2023-09-08T04:19:29;18.60;99.90
25482;DHT22;13395;50.752;4.268;2023-09-08T04:21:55;18.50;99.90
25482;DHT22;13395;50.752;4.268;2023-09-08T04:24:20;18.70;99.90
25482;DHT22;13395;50.752;4.268;2023-09-08T04:26:46;18.50;99.90
25482;DHT22;13395;50.752;4.268;2023-09-08T04:29:12;18.50;99.90
25482;DHT22;13395;50.752;4.268;2023-09-08T04:31:37;18.50;99.90
25482;DHT22;13395;50.752;4.268;2023-09-08T04:34:03;18.50;99.90
25482;DHT22;13395;50.752;4.268;2023-09-08T04:36:28;18.50;99.90
25482;DHT22;13395;50.752;4.268;2023-09-08T04:38:56;18.40;99.90
25482;DHT22;13395;50.752;4.268;2023-09-08T04:41:21;18.40;99.90
25482;DHT22;13395;50.752;4.268;2023-09-08T04:43:47;18.40;99.90
25482;DHT22;13395;50.752;4.268;2023-09-08T04:46:13;18.40;99.90
25482;DHT22;13395;50.752;4.268;2023-09-08T04:48:38;18.40;99.90
25482;DHT22;13395;50.752;4.268;2023-09-08T04:51:04;18.40;99.90
25482;DHT22;13395;50.752;4.268;2023-09-08T04:53:30;18.40;99.90
25482;DHT22;13395;50.752;4.268;2023-09-08T04:55:56;18.40;99.90
25482;DHT22;13395;50.752;4.268;2023-09-08T04:58:21;18.40;99.90
25482;DHT22;13395;50.752;4.268;2023-09-08T05:00:47;18.40;99.90
25482;DHT22;13395;50.752;4.268;2023-09-08T05:03:12;18.30;99.90
25482;DHT22;13395;50.752;4.268;2023-09-08T05:05:38;18.30;99.90
25482;DHT22;13395;50.752;4.268;2023-09-08T05:08:04;18.30;99.90
25482;DHT22;13395;50.752;4.268;2023-09-08T05:15:41;18.30;99.90
25482;DHT22;13395;50.752;4.268;2023-09-08T05:20:45;18.30;99.90
25482;DHT22;13395;50.752;4.268;2023-09-08T05:23:12;18.30;99.90
25482;DHT22;13395;50.752;4.268;2023-09-08T05:25:42;18.40;99.90
25482;DHT22;13395;50.752;4.268;2023-09-08T05:30:43;18.50;99.90
25482;DHT22;13395;50.752;4.268;2023-09-08T05:33:08;18.40;99.90
25482;DHT22;13395;50.752;4.268;2023-09-08T05:35:34;18.40;99.90
25482;DHT22;13395;50.752;4.268;2023-09-08T05:37:59;18.40;99.90
25482;DHT22;13395;50.752;4.268;2023-09-08T05:40:25;18.40;99.90
25482;DHT22;13395;50.752;4.268;2023-09-08T05:42:51;18.40;99.90
25482;DHT22;13395;50.752;4.268;2023-09-08T05:45:17;18.50;99.90
25482;DHT22;13395;50.752;4.268;2023-09-08T05:47:42;18.50;99.90
25482;DHT22;13395;50.752;4.268;2023-09-08T05:50:08;18.50;99.90
25482;DHT22;13395;50.752;4.268;2023-09-08T05:52:34;18.60;99.90
25482;DHT22;13395;50.752;4.268;2023-09-08T05:54:59;18.60;99.90
25482;DHT22;13395;50.752;4.268;2023-09-08T05:57:25;18.60;99.90
25482;DHT22;13395;50.752;4.268;2023-09-08T05:59:51;18.70;99.90
25482;DHT22;13395;50.752;4.268;2023-09-08T06:02:16;18.70;99.90
25482;DHT22;13395;50.752;4.268;2023-09-08T06:04:42;18.80;99.90
25482;DHT22;13395;50.752;4.268;2023-09-08T06:07:07;18.80;99.90
25482;DHT22;13395;50.752;4.268;2023-09-08T06:09:33;18.90;99.90
25482;DHT22;13395;50.752;4.268;2023-09-08T06:11:58;19.00;99.90
25482;DHT22;13395;50.752;4.268;2023-09-08T06:14:24;19.10;99.90
25482;DHT22;13395;50.752;4.268;2023-09-08T06:16:49;19.00;99.90
25482;DHT22;13395;50.752;4.268;2023-09-08T06:19:15;19.10;99.90
25482;DHT22;13395;50.752;4.268;2023-09-08T06:21:40;19.20;99.90
25482;DHT22;13395;50.752;4.268;2023-09-08T06:24:06;19.30;99.90
25482;DHT22;13395;50.752;4.268;2023-09-08T06:26:32;19.40;99.90
25482;DHT22;13395;50.752;4.268;2023-09-08T06:28:58;19.40;99.90
25482;DHT22;13395;50.752;4.268;2023-09-08T06:31:23;19.50;99.90
25482;DHT22;13395;50.752;4.268;2023-09-08T06:33:49;19.90;99.90
25482;DHT22;13395;50.752;4.268;2023-09-08T06:36:18;20.20;99.90
25482;DHT22;13395;50.752;4.268;2023-09-08T06:38:43;20.40;99.90
25482;DHT22;13395;50.752;4.268;2023-09-08T06:41:12;20.40;99.90
25482;DHT22;13395;50.752;4.268;2023-09-08T06:43:38;20.40;99.90
25482;DHT22;13395;50.752;4.268;2023-09-08T06:46:04;20.60;99.90
25482;DHT22;13395;50.752;4.268;2023-09-08T06:48:30;21.40;99.90
25482;DHT22;13395;50.752;4.268;2023-09-08T06:50:56;22.90;99.90
25482;DHT22;13395;50.752;4.268;2023-09-08T06:53:22;24.50;99.90
25482;DHT22;13395;50.752;4.268;2023-09-08T06:55:48;26.20;99.90
25482;DHT22;13395;50.752;4.268;2023-09-08T06:58:13;27.70;99.90
25482;DHT22;13395;50.752;4.268;2023-09-08T07:00:42;28.90;99.90
25482;DHT22;13395;50.752;4.268;2023-09-08T07:03:08;29.70;99.90
25482;DHT22;13395;50.752;4.268;2023-09-08T07:05:39;29.60;99.90
25482;DHT22;13395;50.752;4.268;2023-09-08T07:08:04;29.10;99.90
25482;DHT22;13395;50.752;4.268;2023-09-08T07:10:31;28.50;99.90
25482;DHT22;13395;50.752;4.268;2023-09-08T07:12:57;28.60;99.90
25482;DHT22;13395;50.752;4.268;2023-09-08T07:15:23;29.40;99.90
25482;DHT22;13395;50.752;4.268;2023-09-08T07:17:48;30.40;99.90
25482;DHT22;13395;50.752;4.268;2023-09-08T07:20:14;31.60;99.90
25482;DHT22;13395;50.752;4.268;2023-09-08T07:22:40;32.80;99.90
25482;DHT22;13395;50.752;4.268;2023-09-08T07:25:06;33.80;98.90
25482;DHT22;13395;50.752;4.268;2023-09-08T07:27:32;34.30;96.50
25482;DHT22;13395;50.752;4.268;2023-09-08T07:29:57;34.50;95.60
25482;DHT22;13395;50.752;4.268;2023-09-08T07:32:23;35.20;94.10
25482;DHT22;13395;50.752;4.268;2023-09-08T07:34:50;35.90;92.60
25482;DHT22;13395;50.752;4.268;2023-09-08T07:37:21;36.30;91.20
25482;DHT22;13395;50.752;4.268;2023-09-08T07:39:48;36.60;90.50
25482;DHT22;13395;50.752;4.268;2023-09-08T07:42:13;37.10;89.10
25482;DHT22;13395;50.752;4.268;2023-09-08T07:44:39;38.00;86.00
25482;DHT22;13395;50.752;4.268;2023-09-08T07:47:04;38.60;82.70
25482;DHT22;13395;50.752;4.268;2023-09-08T07:49:30;39.10;79.30
25482;DHT22;13395;50.752;4.268;2023-09-08T07:51:56;39.50;78.50
25482;DHT22;13395;50.752;4.268;2023-09-08T07:54:22;39.80;76.00
25482;DHT22;13395;50.752;4.268;2023-09-08T07:56:48;40.30;72.70
25482;DHT22;13395;50.752;4.268;2023-09-08T07:59:13;40.50;71.10
25482;DHT22;13395;50.752;4.268;2023-09-08T08:01:39;40.80;70.90
25482;DHT22;13395;50.752;4.268;2023-09-08T08:04:04;41.40;69.70
25482;DHT22;13395;50.752;4.268;2023-09-08T08:06:30;41.70;68.00
25482;DHT22;13395;50.752;4.268;2023-09-08T08:08:56;41.70;66.60
25482;DHT22;13395;50.752;4.268;2023-09-08T08:11:21;41.70;63.90
25482;DHT22;13395;50.752;4.268;2023-09-08T08:13:47;41.80;64.20
25482;DHT22;13395;50.752;4.268;2023-09-08T08:16:13;42.30;64.40
25482;DHT22;13395;50.752;4.268;2023-09-08T08:18:38;42.70;62.50
25482;DHT22;13395;50.752;4.268;2023-09-08T08:21:04;42.80;61.70
25482;DHT22;13395;50.752;4.268;2023-09-08T08:23:30;42.90;59.70
25482;DHT22;13395;50.752;4.268;2023-09-08T08:25:56;43.00;61.00
25482;DHT22;13395;50.752;4.268;2023-09-08T08:28:22;42.90;60.20
25482;DHT22;13395;50.752;4.268;2023-09-08T08:30:47;43.20;60.60
25482;DHT22;13395;50.752;4.268;2023-09-08T08:33:14;43.70;58.80
25482;DHT22;13395;50.752;4.268;2023-09-08T08:35:40;44.00;58.90
25482;DHT22;13395;50.752;4.268;2023-09-08T08:38:06;44.40;57.80
25482;DHT22;13395;50.752;4.268;2023-09-08T08:40:31;45.00;56.70
25482;DHT22;13395;50.752;4.268;2023-09-08T08:42:59;44.60;57.00
25482;DHT22;13395;50.752;4.268;2023-09-08T08:45:25;44.30;55.10
25482;DHT22;13395;50.752;4.268;2023-09-08T08:47:52;44.40;56.50
25482;DHT22;13395;50.752;4.268;2023-09-08T08:50:19;44.70;55.50
25482;DHT22;13395;50.752;4.268;2023-09-08T08:52:45;44.90;55.40
25482;DHT22;13395;50.752;4.268;2023-09-08T08:55:12;44.60;55.00
25482;DHT22;13395;50.752;4.268;2023-09-08T08:57:40;44.90;55.70
25482;DHT22;13395;50.752;4.268;2023-09-08T09:00:10;44.80;55.30
25482;DHT22;13395;50.752;4.268;2023-09-08T09:02:42;44.90;54.60
25482;DHT22;13395;50.752;4.268;2023-09-08T09:05:16;45.40;54.50
25482;DHT22;13395;50.752;4.268;2023-09-08T09:07:44;46.20;54.40
25482;DHT22;13395;50.752;4.268;2023-09-08T09:10:10;46.70;52.80
25482;DHT22;13395;50.752;4.268;2023-09-08T09:12:37;46.70;53.20
25482;DHT22;13395;50.752;4.268;2023-09-08T09:15:03;47.10;52.50
25482;DHT22;13395;50.752;4.268;2023-09-08T09:17:34;47.30;52.40
25482;DHT22;13395;50.752;4.268;2023-09-08T09:20:18;47.90;51.70
25482;DHT22;13395;50.752;4.268;2023-09-08T09:22:46;48.20;50.70
25482;DHT22;13395;50.752;4.268;2023-09-08T09:25:26;47.40;50.40
25482;DHT22;13395;50.752;4.268;2023-09-08T09:30:21;48.10;50.10
25482;DHT22;13395;50.752;4.268;2023-09-08T09:32:48;48.20;50.50
25482;DHT22;13395;50.752;4.268;2023-09-08T09:35:16;47.80;48.70
25482;DHT22;13395;50.752;4.268;2023-09-08T09:37:42;47.90;48.20
25482;DHT22;13395;50.752;4.268;2023-09-08T09:40:08;48.00;49.20
25482;DHT22;13395;50.752;4.268;2023-09-08T09:42:38;47.90;48.20
25482;DHT22;13395;50.752;4.268;2023-09-08T09:45:06;47.60;49.60
25482;DHT22;13395;50.752;4.268;2023-09-08T09:47:32;48.50;48.70
25482;DHT22;13395;50.752;4.268;2023-09-08T09:49:58;48.50;47.60
25482;DHT22;13395;50.752;4.268;2023-09-08T09:52:24;48.70;47.40
25482;DHT22;13395;50.752;4.268;2023-09-08T09:54:52;49.10;48.00
25482;DHT22;13395;50.752;4.268;2023-09-08T09:57:21;49.50;46.70
25482;DHT22;13395;50.752;4.268;2023-09-08T09:59:47;49.50;46.30
25482;DHT22;13395;50.752;4.268;2023-09-08T10:02:17;49.70;45.40
25482;DHT22;13395;50.752;4.268;2023-09-08T10:04:48;49.90;45.40
25482;DHT22;13395;50.752;4.268;2023-09-08T10:07:15;50.10;45.80
25482;DHT22;13395;50.752;4.268;2023-09-08T10:09:41;50.00;45.00
25482;DHT22;13395;50.752;4.268;2023-09-08T10:12:08;49.90;45.90
25482;DHT22;13395;50.752;4.268;2023-09-08T10:14:41;49.70;45.00
25482;DHT22;13395;50.752;4.268;2023-09-08T10:17:10;49.80;45.20
25482;DHT22;13395;50.752;4.268;2023-09-08T10:19:37;49.50;45.00
25482;DHT22;13395;50.752;4.268;2023-09-08T10:22:11;49.60;43.80
25482;DHT22;13395;50.752;4.268;2023-09-08T10:24:38;50.00;45.40
25482;DHT22;13395;50.752;4.268;2023-09-08T10:27:09;50.50;43.90
25482;DHT22;13395;50.752;4.268;2023-09-08T10:29:36;50.50;44.00
25482;DHT22;13395;50.752;4.268;2023-09-08T10:32:03;50.50;44.10
25482;DHT22;13395;50.752;4.268;2023-09-08T10:34:30;50.10;43.90
25482;DHT22;13395;50.752;4.268;2023-09-08T10:36:56;50.20;43.70
25482;DHT22;13395;50.752;4.268;2023-09-08T10:39:35;50.00;44.30
25482;DHT22;13395;50.752;4.268;2023-09-08T10:47:31;50.30;42.80
25482;DHT22;13395;50.752;4.268;2023-09-08T10:49:56;50.50;41.90
25482;DHT22;13395;50.752;4.268;2023-09-08T10:52:24;50.40;43.00
25482;DHT22;13395;50.752;4.268;2023-09-08T10:54:52;49.90;43.00
25482;DHT22;13395;50.752;4.268;2023-09-08T10:57:23;50.50;42.40
25482;DHT22;13395;50.752;4.268;2023-09-08T10:59:57;50.80;42.10
25482;DHT22;13395;50.752;4.268;2023-09-08T11:04:57;50.90;41.10
25482;DHT22;13395;50.752;4.268;2023-09-08T11:07:24;50.70;40.90
25482;DHT22;13395;50.752;4.268;2023-09-08T11:09:50;50.20;41.50
25482;DHT22;13395;50.752;4.268;2023-09-08T11:12:16;50.30;40.00
25482;DHT22;13395;50.752;4.268;2023-09-08T11:14:43;50.30;40.80
25482;DHT22;13395;50.752;4.268;2023-09-08T11:17:09;50.70;41.60
25482;DHT22;13395;50.752;4.268;2023-09-08T11:19:48;50.80;39.60
25482;DHT22;13395;50.752;4.268;2023-09-08T11:22:15;50.80;40.00
25482;DHT22;13395;50.752;4.268;2023-09-08T11:24:42;50.90;41.10
25482;DHT22;13395;50.752;4.268;2023-09-08T11:27:08;51.20;41.10
25482;DHT22;13395;50.752;4.268;2023-09-08T11:29:34;51.20;41.30
25482;DHT22;13395;50.752;4.268;2023-09-08T11:31:59;51.10;41.30
25482;DHT22;13395;50.752;4.268;2023-09-08T11:34:25;51.10;40.90
25482;DHT22;13395;50.752;4.268;2023-09-08T11:36:51;51.30;40.70
25482;DHT22;13395;50.752;4.268;2023-09-08T11:39:18;51.10;39.50
25482;DHT22;13395;50.752;4.268;2023-09-08T11:41:43;50.80;38.90
25482;DHT22;13395;50.752;4.268;2023-09-08T11:44:09;50.90;40.30
25482;DHT22;13395;50.752;4.268;2023-09-08T11:46:40;50.90;42.40
25482;DHT22;13395;50.752;4.268;2023-09-08T11:49:05;50.40;41.40
25482;DHT22;13395;50.752;4.268;2023-09-08T11:51:31;50.50;40.30
25482;DHT22;13395;50.752;4.268;2023-09-08T11:53:57;50.50;40.00
25482;DHT22;13395;50.752;4.268;2023-09-08T11:56:22;51.00;41.50
25482;DHT22;13395;50.752;4.268;2023-09-08T11:58:48;50.90;40.30
25482;DHT22;13395;50.752;4.268;2023-09-08T12:01:14;50.30;39.70
25482;DHT22;13395;50.752;4.268;2023-09-08T12:03:53;50.10;40.40
25482;DHT22;13395;50.752;4.268;2023-09-08T12:06:19;50.20;40.20
25482;DHT22;13395;50.752;4.268;2023-09-08T12:08:45;49.40;40.00
25482;DHT22;13395;50.752;4.268;2023-09-08T12:11:11;49.30;41.30
25482;DHT22;13395;50.752;4.268;2023-09-08T12:13:37;49.10;41.60
25482;DHT22;13395;50.752;4.268;2023-09-08T12:16:17;48.80;41.90
25482;DHT22;13395;50.752;4.268;2023-09-08T12:18:43;49.00;41.90
25482;DHT22;13395;50.752;4.268;2023-09-08T12:21:10;48.70;40.70
25482;DHT22;13395;50.752;4.268;2023-09-08T12:23:47;48.70;40.20
25482;DHT22;13395;50.752;4.268;2023-09-08T12:26:13;48.80;42.30
25482;DHT22;13395;50.752;4.268;2023-09-08T12:28:39;48.70;41.20
25482;DHT22;13395;50.752;4.268;2023-09-08T12:31:05;48.80;42.10
25482;DHT22;13395;50.752;4.268;2023-09-08T12:33:30;47.90;41.10
25482;DHT22;13395;50.752;4.268;2023-09-08T12:35:56;47.90;43.20
25482;DHT22;13395;50.752;4.268;2023-09-08T12:38:21;47.70;42.80
25482;DHT22;13395;50.752;4.268;2023-09-08T12:40:48;47.30;42.00
25482;DHT22;13395;50.752;4.268;2023-09-08T12:43:14;47.80;43.50
25482;DHT22;13395;50.752;4.268;2023-09-08T12:45:40;47.70;42.00
25482;DHT22;13395;50.752;4.268;2023-09-08T12:48:06;47.30;42.40
25482;DHT22;13395;50.752;4.268;2023-09-08T12:50:32;47.40;44.00
25482;DHT22;13395;50.752;4.268;2023-09-08T12:52:58;47.50;43.10
25482;DHT22;13395;50.752;4.268;2023-09-08T12:55:24;47.80;43.20
25482;DHT22;13395;50.752;4.268;2023-09-08T12:57:50;47.90;43.50
25482;DHT22;13395;50.752;4.268;2023-09-08T13:00:20;48.30;41.70
25482;DHT22;13395;50.752;4.268;2023-09-08T13:02:47;48.20;42.10
25482;DHT22;13395;50.752;4.268;2023-09-08T13:05:13;48.20;42.20
25482;DHT22;13395;50.752;4.268;2023-09-08T13:07:39;47.50;42.10
25482;DHT22;13395;50.752;4.268;2023-09-08T13:10:05;46.90;43.50
25482;DHT22;13395;50.752;4.268;2023-09-08T13:12:31;46.60;43.00
25482;DHT22;13395;50.752;4.268;2023-09-08T13:14:56;46.40;44.20
25482;DHT22;13395;50.752;4.268;2023-09-08T13:17:22;46.30;44.90
25482;DHT22;13395;50.752;4.268;2023-09-08T13:19:48;46.20;44.20
25482;DHT22;13395;50.752;4.268;2023-09-08T13:22:13;46.50;45.00
25482;DHT22;13395;50.752;4.268;2023-09-08T13:24:39;46.40;44.80
25482;DHT22;13395;50.752;4.268;2023-09-08T13:27:05;45.60;44.00
25482;DHT22;13395;50.752;4.268;2023-09-08T13:29:31;44.90;46.00
25482;DHT22;13395;50.752;4.268;2023-09-08T13:31:56;44.90;46.00
25482;DHT22;13395;50.752;4.268;2023-09-08T13:34:23;44.30;46.20
25482;DHT22;13395;50.752;4.268;2023-09-08T13:36:49;43.10;47.30
25482;DHT22;13395;50.752;4.268;2023-09-08T13:39:14;42.30;49.40
25482;DHT22;13395;50.752;4.268;2023-09-08T13:42:00;41.50;50.30
25482;DHT22;13395;50.752;4.268;2023-09-08T13:44:26;40.70;51.60
25482;DHT22;13395;50.752;4.268;2023-09-08T13:46:52;39.90;53.40
25482;DHT22;13395;50.752;4.268;2023-09-08T13:49:22;39.50;53.30
25482;DHT22;13395;50.752;4.268;2023-09-08T13:51:50;39.00;53.80
25482;DHT22;13395;50.752;4.268;2023-09-08T13:54:17;39.00;55.60
25482;DHT22;13395;50.752;4.268;2023-09-08T13:56:43;38.70;55.80
25482;DHT22;13395;50.752;4.268;2023-09-08T13:59:09;38.20;55.40
25482;DHT22;13395;50.752;4.268;2023-09-08T14:01:35;37.80;56.30
25482;DHT22;13395;50.752;4.268;2023-09-08T14:04:01;37.50;56.60
25482;DHT22;13395;50.752;4.268;2023-09-08T14:06:28;37.40;57.70
25482;DHT22;13395;50.752;4.268;2023-09-08T14:08:54;37.30;57.10
25482;DHT22;13395;50.752;4.268;2023-09-08T14:11:20;37.00;58.60
25482;DHT22;13395;50.752;4.268;2023-09-08T14:13:46;36.80;58.40
25482;DHT22;13395;50.752;4.268;2023-09-08T14:16:12;36.70;59.10
25482;DHT22;13395;50.752;4.268;2023-09-08T14:18:38;36.60;58.50
25482;DHT22;13395;50.752;4.268;2023-09-08T14:21:04;36.40;59.30
25482;DHT22;13395;50.752;4.268;2023-09-08T14:23:30;36.10;59.80
25482;DHT22;13395;50.752;4.268;2023-09-08T14:25:56;36.10;60.50
25482;DHT22;13395;50.752;4.268;2023-09-08T14:28:22;36.00;60.60
25482;DHT22;13395;50.752;4.268;2023-09-08T14:30:49;36.10;61.90
25482;DHT22;13395;50.752;4.268;2023-09-08T14:33:16;36.20;61.50
25482;DHT22;13395;50.752;4.268;2023-09-08T14:35:43;36.00;60.70
25482;DHT22;13395;50.752;4.268;2023-09-08T14:38:09;35.90;61.20
25482;DHT22;13395;50.752;4.268;2023-09-08T14:40:35;35.70;61.40
25482;DHT22;13395;50.752;4.268;2023-09-08T14:43:00;35.70;61.70
25482;DHT22;13395;50.752;4.268;2023-09-08T14:45:26;35.70;60.90
25482;DHT22;13395;50.752;4.268;2023-09-08T14:47:54;35.70;63.10
25482;DHT22;13395;50.752;4.268;2023-09-08T14:50:20;35.70;63.80
25482;DHT22;13395;50.752;4.268;2023-09-08T14:52:45;35.70;61.30
25482;DHT22;13395;50.752;4.268;2023-09-08T14:55:11;35.60;63.50
25482;DHT22;13395;50.752;4.268;2023-09-08T14:57:37;35.40;62.40
25482;DHT22;13395;50.752;4.268;2023-09-08T15:00:03;35.30;63.00
25482;DHT22;13395;50.752;4.268;2023-09-08T15:02:30;35.30;63.30
25482;DHT22;13395;50.752;4.268;2023-09-08T15:04:56;35.30;64.10
25482;DHT22;13395;50.752;4.268;2023-09-08T15:07:22;35.20;63.90
25482;DHT22;13395;50.752;4.268;2023-09-08T15:09:47;35.10;65.00
25482;DHT22;13395;50.752;4.268;2023-09-08T15:12:13;35.20;64.80
25482;DHT22;13395;50.752;4.268;2023-09-08T15:14:38;35.30;65.50
25482;DHT22;13395;50.752;4.268;2023-09-08T15:17:05;35.20;65.00
25482;DHT22;13395;50.752;4.268;2023-09-08T15:19:31;35.20;64.50
25482;DHT22;13395;50.752;4.268;2023-09-08T15:21:58;35.20;64.10
25482;DHT22;13395;50.752;4.268;2023-09-08T15:24:24;35.10;64.70
25482;DHT22;13395;50.752;4.268;2023-09-08T15:26:49;35.00;65.20
25482;DHT22;13395;50.752;4.268;2023-09-08T15:29:15;35.00;65.90
25482;DHT22;13395;50.752;4.268;2023-09-08T15:31:41;35.00;65.60
25482;DHT22;13395;50.752;4.268;2023-09-08T15:34:07;35.10;66.70
25482;DHT22;13395;50.752;4.268;2023-09-08T15:36:33;34.90;67.10
25482;DHT22;13395;50.752;4.268;2023-09-08T15:38:59;34.90;65.70
25482;DHT22;13395;50.752;4.268;2023-09-08T15:41:24;34.90;66.40
25482;DHT22;13395;50.752;4.268;2023-09-08T15:43:50;34.80;67.10
25482;DHT22;13395;50.752;4.268;2023-09-08T15:46:17;34.70;66.00
25482;DHT22;13395;50.752;4.268;2023-09-08T15:48:43;34.70;67.90
25482;DHT22;13395;50.752;4.268;2023-09-08T15:51:09;34.70;68.30